Time;durP1;ratioP1;P1;durP2;ratioP2;P2;SDS_P1;SDS_P2;PMS_P1;PMS_P2;Temp;Humidity;BMP_temperature;BMP_pressure;BME280_temperature;BME280_humidity;BME280_pressure;Samples;Min_cycle;Max_cycle;Signal;HPM_P1;HPM_P2
2023/06/12 00:01:13;;;;;;;5.28;4.75;;;22.90;99.90;;;;;;5053314;28;20202;-82
2023/06/12 00:03:43;;;;;;;5.63;4.70;;;22.90;99.90;;;;;;5047408;28;20210;-82
2023/06/12 00:06:10;;;;;;;4.88;4.38;;;22.90;99.90;;;;;;5032728;28;20615;-82
2023/06/12 00:08:42;;;;;;;5.75;4.78;;;22.80;99.90;;;;;;5032818;28;20213;-79
2023/06/12 00:11:12;;;;;;;4.80;4.40;;;22.80;99.90;;;;;;5033264;28;20207;-81
2023/06/12 00:13:40;;;;;;;4.97;4.45;;;22.80;99.90;;;;;;5035203;28;20263;-82
2023/06/12 00:16:07;;;;;;;5.40;4.90;;;22.70;99.90;;;;;;5053088;28;20222;-81
2023/06/12 00:18:35;;;;;;;5.75;4.55;;;22.70;99.90;;;;;;5053242;28;20248;-81
2023/06/12 00:21:02;;;;;;;5.38;3.92;;;22.70;99.90;;;;;;5049402;28;20201;-81
2023/06/12 00:23:29;;;;;;;4.63;4.22;;;22.60;99.90;;;;;;5053081;28;20237;-79
2023/06/12 00:25:57;;;;;;;4.50;4.10;;;22.50;99.90;;;;;;5051400;28;20198;-83
2023/06/12 00:28:24;;;;;;;5.45;4.50;;;22.50;99.90;;;;;;5032452;28;20225;-80
2023/06/12 00:30:51;;;;;;;6.40;4.50;;;22.40;99.90;;;;;;5032677;28;20244;-82
2023/06/12 00:33:18;;;;;;;5.45;4.93;;;22.40;99.90;;;;;;5032373;28;20203;-80
2023/06/12 00:35:45;;;;;;;5.82;4.72;;;22.30;99.90;;;;;;5051142;28;20197;-80
2023/06/12 00:38:12;;;;;;;5.13;4.03;;;22.30;99.90;;;;;;5052484;28;20298;-79
2023/06/12 00:40:39;;;;;;;6.13;4.47;;;22.20;99.90;;;;;;5051076;28;20238;-81
2023/06/12 00:43:08;;;;;;;6.70;4.68;;;22.20;99.90;;;;;;5051886;28;20206;-82
2023/06/12 00:45:36;;;;;;;4.57;4.15;;;22.20;99.90;;;;;;5051493;28;20208;-81
2023/06/12 00:48:05;;;;;;;4.40;4.00;;;22.20;99.90;;;;;;5051690;28;20194;-82
2023/06/12 00:50:33;;;;;;;5.20;4.47;;;22.10;99.90;;;;;;5051391;28;20237;-78
2023/06/12 00:53:00;;;;;;;5.03;4.20;;;22.10;99.90;;;;;;5051686;28;20497;-78
2023/06/12 00:55:29;;;;;;;4.30;3.90;;;22.10;99.90;;;;;;5051134;28;20212;-82
2023/06/12 00:57:57;;;;;;;4.60;4.05;;;22.00;99.90;;;;;;5052188;28;20817;-80
2023/06/12 01:00:25;;;;;;;4.95;4.32;;;22.00;99.90;;;;;;5051301;28;20217;-81
2023/06/12 01:02:58;;;;;;;4.30;3.90;;;21.90;99.90;;;;;;5051206;28;20194;-79
2023/06/12 01:05:32;;;;;;;4.50;4.10;;;21.90;99.90;;;;;;5052215;28;20243;-80
2023/06/12 01:08:10;;;;;;;4.70;4.10;;;21.80;99.90;;;;;;5051220;28;20182;-77
2023/06/12 01:10:42;;;;;;;5.00;4.18;;;21.70;99.90;;;;;;5032361;28;20194;-81
2023/06/12 01:13:11;;;;;;;5.53;4.55;;;21.70;99.90;;;;;;5031902;28;20190;-78
2023/06/12 01:15:39;;;;;;;5.53;4.30;;;21.70;99.90;;;;;;5031370;28;20277;-81
2023/06/12 01:18:06;;;;;;;5.10;3.88;;;21.60;99.90;;;;;;5041827;28;20244;-81
2023/06/12 01:20:34;;;;;;;4.22;3.83;;;21.60;99.90;;;;;;5051624;28;20251;-81
2023/06/12 01:23:11;;;;;;;5.00;4.47;;;21.60;99.90;;;;;;5051227;28;20197;-79
2023/06/12 01:26:11;;;;;;;4.95;4.45;;;21.50;99.90;;;;;;5051113;28;20198;-80
2023/06/12 01:29:08;;;;;;;4.38;3.97;;;21.40;99.90;;;;;;5051767;28;20223;-80
2023/06/12 01:31:44;;;;;;;4.32;3.92;;;21.40;99.90;;;;;;5051670;28;20585;-79
2023/06/12 01:34:20;;;;;;;4.40;3.92;;;21.40;99.90;;;;;;5051956;28;20727;-78
2023/06/12 01:36:54;;;;;;;5.88;4.35;;;21.30;99.90;;;;;;5049272;28;20205;-80
2023/06/12 01:39:24;;;;;;;4.35;3.95;;;21.30;99.90;;;;;;5051456;28;20278;-78
2023/06/12 01:41:52;;;;;;;4.93;4.20;;;21.20;99.90;;;;;;5050649;28;20202;-78
2023/06/12 01:44:21;;;;;;;4.75;4.32;;;21.20;99.90;;;;;;5050685;28;20632;-79
2023/06/12 01:46:48;;;;;;;5.25;4.63;;;21.20;99.90;;;;;;5051348;28;20666;-80
2023/06/12 01:49:16;;;;;;;5.00;4.25;;;21.10;99.90;;;;;;5051543;28;20304;-78
2023/06/12 01:51:43;;;;;;;5.55;4.03;;;21.10;99.90;;;;;;5049225;28;20332;-78
2023/06/12 01:54:10;;;;;;;4.88;4.05;;;21.10;99.90;;;;;;5051325;28;20198;-79
2023/06/12 01:56:37;;;;;;;7.30;4.50;;;21.10;99.90;;;;;;5051784;28;20289;-79
2023/06/12 01:59:04;;;;;;;4.68;3.90;;;21.10;99.90;;;;;;5050829;28;20222;-79
2023/06/12 02:01:31;;;;;;;4.65;4.25;;;21.00;99.90;;;;;;5049856;28;20240;-81
2023/06/12 02:03:57;;;;;;;5.30;4.55;;;21.00;99.90;;;;;;5053426;28;20208;-80
2023/06/12 02:06:26;;;;;;;4.90;4.40;;;21.00;99.90;;;;;;5054927;28;20204;-78
2023/06/12 02:08:53;;;;;;;4.45;4.07;;;21.00;99.90;;;;;;5053746;28;20233;-78
2023/06/12 02:11:21;;;;;;;4.72;4.32;;;20.90;99.90;;;;;;5054354;28;20201;-80
2023/06/12 02:13:48;;;;;;;5.00;4.13;;;20.90;99.90;;;;;;5054407;28;20755;-79
2023/06/12 02:16:20;;;;;;;5.25;4.30;;;20.90;99.90;;;;;;5053923;28;20297;-82
2023/06/12 02:18:48;;;;;;;4.32;3.92;;;20.80;99.90;;;;;;5050482;28;20222;-81
2023/06/12 02:21:14;;;;;;;5.93;4.13;;;20.80;99.90;;;;;;5034953;28;20678;-80
2023/06/12 02:23:43;;;;;;;4.32;3.92;;;20.80;99.90;;;;;;5037926;28;20206;-81
2023/06/12 02:26:09;;;;;;;5.75;4.38;;;20.70;99.90;;;;;;5054142;28;20591;-81
2023/06/12 02:28:36;;;;;;;6.53;4.07;;;20.70;99.90;;;;;;5053752;28;20222;-79
2023/06/12 02:31:04;;;;;;;4.80;3.80;;;20.60;99.90;;;;;;5054349;28;20489;-81
2023/06/12 02:33:31;;;;;;;4.85;4.35;;;20.60;99.90;;;;;;5053888;28;20191;-79
2023/06/12 02:35:58;;;;;;;4.22;3.83;;;20.60;99.90;;;;;;5054559;28;20198;-80
2023/06/12 02:38:26;;;;;;;6.53;4.50;;;20.50;99.90;;;;;;5053453;28;20241;-81
2023/06/12 02:40:54;;;;;;;4.80;4.03;;;20.50;99.90;;;;;;5053774;28;20289;-81
2023/06/12 02:43:21;;;;;;;4.53;4.05;;;20.40;99.90;;;;;;5054138;28;20202;-78
2023/06/12 02:45:47;;;;;;;4.53;4.13;;;20.40;99.90;;;;;;5053976;28;20209;-78
2023/06/12 02:48:14;;;;;;;4.90;4.40;;;20.30;99.90;;;;;;5053015;28;20297;-78
2023/06/12 02:50:41;;;;;;;5.95;4.88;;;20.30;99.90;;;;;;5052972;28;20241;-78
2023/06/12 02:53:08;;;;;;;5.75;4.10;;;20.20;99.90;;;;;;5054245;28;20198;-78
2023/06/12 02:55:39;;;;;;;4.20;3.83;;;20.20;99.90;;;;;;5053214;28;20736;-79
2023/06/12 02:58:08;;;;;;;4.18;3.78;;;20.20;99.90;;;;;;5054246;28;20214;-79
2023/06/12 03:00:34;;;;;;;4.43;3.95;;;20.20;99.90;;;;;;5051273;28;20217;-78
2023/06/12 03:03:02;;;;;;;4.93;4.50;;;20.20;99.90;;;;;;5054039;28;20285;-77
2023/06/12 03:05:33;;;;;;;4.47;4.07;;;20.10;99.90;;;;;;5053794;28;20526;-79
2023/06/12 03:08:02;;;;;;;4.72;4.00;;;20.10;99.90;;;;;;5052224;28;20200;-79
2023/06/12 03:10:29;;;;;;;4.32;3.92;;;20.10;99.90;;;;;;5054192;28;20193;-81
2023/06/12 03:12:56;;;;;;;6.22;5.03;;;20.10;99.90;;;;;;5053605;28;20759;-81
2023/06/12 03:15:24;;;;;;;5.20;4.70;;;20.00;99.90;;;;;;5053501;28;20202;-81
2023/06/12 03:17:51;;;;;;;8.15;5.50;;;20.00;99.90;;;;;;5052892;28;20225;-81
2023/06/12 03:20:18;;;;;;;5.78;5.18;;;20.00;99.90;;;;;;5053829;28;20202;-80
2023/06/12 03:22:45;;;;;;;6.95;5.88;;;20.00;99.90;;;;;;5053189;28;20593;-79
2023/06/12 03:25:12;;;;;;;7.55;5.60;;;20.00;99.90;;;;;;5050482;28;20259;-81
2023/06/12 03:27:39;;;;;;;6.25;5.00;;;20.00;99.90;;;;;;5033882;28;20249;-82
2023/06/12 03:30:07;;;;;;;5.25;4.45;;;19.90;99.90;;;;;;5032706;28;20213;-78
2023/06/12 03:32:35;;;;;;;5.40;4.47;;;19.90;99.90;;;;;;5037972;28;20285;-78
2023/06/12 03:35:02;;;;;;;4.88;4.47;;;19.90;99.90;;;;;;5053027;28;20206;-78
2023/06/12 03:37:29;;;;;;;6.30;4.57;;;19.90;99.90;;;;;;5052166;28;20288;-78
2023/06/12 03:39:56;;;;;;;4.80;4.38;;;19.80;99.90;;;;;;5052528;28;20236;-78
2023/06/12 03:42:23;;;;;;;5.07;4.57;;;19.80;99.90;;;;;;5053097;28;20202;-81
2023/06/12 03:44:50;;;;;;;6.55;4.85;;;19.80;99.90;;;;;;5052808;28;20665;-81
2023/06/12 03:47:17;;;;;;;4.63;4.22;;;19.80;99.90;;;;;;5053494;28;20755;-81
2023/06/12 03:49:46;;;;;;;4.53;4.13;;;19.80;99.90;;;;;;5051807;28;20512;-80
2023/06/12 03:52:13;;;;;;;4.43;4.03;;;19.80;99.90;;;;;;5053252;28;20321;-80
2023/06/12 03:54:40;;;;;;;5.20;4.57;;;19.80;99.90;;;;;;5052309;28;20732;-81
2023/06/12 03:57:07;;;;;;;5.40;4.90;;;19.80;99.90;;;;;;5052680;28;20198;-81
2023/06/12 03:59:34;;;;;;;6.13;4.55;;;19.80;99.90;;;;;;5053177;28;20355;-81
2023/06/12 04:02:01;;;;;;;6.38;4.80;;;19.80;99.90;;;;;;5045134;28;20305;-80
2023/06/12 04:04:28;;;;;;;9.45;4.38;;;19.80;99.90;;;;;;5032125;28;20209;-80
2023/06/12 04:06:57;;;;;;;5.40;4.90;;;19.90;99.90;;;;;;5032758;28;20241;-82
2023/06/12 04:09:24;;;;;;;4.80;4.30;;;19.90;99.90;;;;;;5038534;28;20209;-80
2023/06/12 04:11:52;;;;;;;4.80;4.30;;;19.90;99.90;;;;;;5052293;28;20197;-80
2023/06/12 04:14:19;;;;;;;5.35;4.47;;;19.90;99.90;;;;;;5052819;28;20594;-81
2023/06/12 04:16:46;;;;;;;5.10;4.63;;;19.90;99.90;;;;;;5052486;28;20586;-81
2023/06/12 04:19:13;;;;;;;5.25;4.75;;;20.00;99.90;;;;;;5051241;28;20221;-81
2023/06/12 04:21:40;;;;;;;5.32;4.75;;;20.00;99.90;;;;;;5052281;28;20198;-81
2023/06/12 04:24:15;;;;;;;5.53;4.90;;;20.00;99.90;;;;;;5052636;28;20197;-82
2023/06/12 04:26:43;;;;;;;4.90;4.47;;;20.10;99.90;;;;;;5050908;28;20244;-79
2023/06/12 04:29:11;;;;;;;5.78;4.95;;;20.10;99.90;;;;;;5052216;28;20198;-81
2023/06/12 04:31:38;;;;;;;6.43;5.03;;;20.20;99.90;;;;;;5052268;28;20202;-79
2023/06/12 04:34:06;;;;;;;5.97;5.18;;;20.30;99.90;;;;;;5050917;28;20516;-79
2023/06/12 04:36:37;;;;;;;5.97;4.97;;;20.30;99.90;;;;;;5051234;28;20298;-82
2023/06/12 04:39:04;;;;;;;5.55;5.00;;;20.30;99.90;;;;;;5049220;28;20225;-81
2023/06/12 04:41:33;;;;;;;5.72;4.53;;;20.30;99.90;;;;;;5032417;28;20205;-81
2023/06/12 04:44:00;;;;;;;6.25;5.65;;;20.30;99.90;;;;;;5032617;28;20195;-81
2023/06/12 04:46:28;;;;;;;5.78;4.82;;;20.40;99.90;;;;;;5032758;28;20206;-82
2023/06/12 04:48:55;;;;;;;5.45;4.95;;;20.40;99.90;;;;;;5032006;28;20200;-81
2023/06/12 04:51:23;;;;;;;6.07;5.00;;;20.50;99.90;;;;;;5032100;28;20228;-82
2023/06/12 04:53:53;;;;;;;5.15;4.60;;;20.50;99.90;;;;;;5031853;28;20298;-81
2023/06/12 04:56:21;;;;;;;7.57;5.13;;;20.50;99.90;;;;;;5050680;28;20214;-82
2023/06/12 04:58:51;;;;;;;10.15;5.80;;;20.70;99.90;;;;;;5052029;28;20232;-80
2023/06/12 05:01:21;;;;;;;7.68;5.55;;;20.90;99.90;;;;;;5049977;28;20298;-81
2023/06/12 05:03:49;;;;;;;6.03;4.78;;;21.20;99.90;;;;;;5051869;28;20230;-81
2023/06/12 05:06:16;;;;;;;6.45;4.55;;;21.50;99.90;;;;;;5052166;28;20568;-82
2023/06/12 05:08:43;;;;;;;5.75;4.88;;;21.90;99.90;;;;;;5051340;28;20363;-81
2023/06/12 05:11:10;;;;;;;5.10;4.55;;;22.40;99.90;;;;;;5050908;28;20202;-81
2023/06/12 05:13:37;;;;;;;4.72;4.32;;;22.80;99.90;;;;;;5034180;28;20207;-80
2023/06/12 05:16:05;;;;;;;5.90;4.60;;;23.20;99.90;;;;;;5031695;28;20207;-82
2023/06/12 05:18:32;;;;;;;6.25;4.50;;;23.60;99.90;;;;;;5040413;28;20852;-81
2023/06/12 05:20:59;;;;;;;5.53;4.60;;;24.00;99.90;;;;;;5051914;28;20197;-78
2023/06/12 05:23:27;;;;;;;5.30;4.45;;;24.40;99.90;;;;;;5051031;28;20202;-78
2023/06/12 05:25:54;;;;;;;6.25;4.68;;;24.80;99.90;;;;;;5042957;28;20220;-80
2023/06/12 05:28:20;;;;;;;5.85;4.50;;;25.10;99.90;;;;;;5051199;28;20238;-79
2023/06/12 05:30:48;;;;;;;7.57;4.68;;;25.40;99.90;;;;;;5051223;28;20503;-81
2023/06/12 05:33:17;;;;;;;6.40;4.72;;;25.60;99.90;;;;;;5050437;28;20209;-80
2023/06/12 05:35:44;;;;;;;5.65;5.05;;;25.90;99.90;;;;;;5051190;28;20601;-79
2023/06/12 05:38:11;;;;;;;6.05;4.60;;;26.20;99.90;;;;;;5052306;28;20301;-81
2023/06/12 05:40:38;;;;;;;5.47;4.88;;;26.40;99.90;;;;;;5054905;28;20202;-81
2023/06/12 05:43:05;;;;;;;5.10;4.60;;;26.70;99.90;;;;;;5054450;28;20213;-81
2023/06/12 05:45:31;;;;;;;7.00;4.68;;;26.90;99.90;;;;;;5055528;28;20285;-82
2023/06/12 05:47:58;;;;;;;6.85;5.15;;;27.20;99.90;;;;;;5055247;28;20189;-79
2023/06/12 05:50:26;;;;;;;6.25;4.50;;;27.40;99.90;;;;;;5053299;28;20316;-81
2023/06/12 05:52:53;;;;;;;5.55;5.05;;;27.60;99.90;;;;;;5055213;28;20666;-80
2023/06/12 05:55:20;;;;;;;5.30;4.80;;;27.90;99.90;;;;;;5055156;28;20208;-79
2023/06/12 05:57:47;;;;;;;4.45;4.05;;;28.00;99.90;;;;;;5053309;28;20618;-78
2023/06/12 06:00:15;;;;;;;5.22;4.63;;;28.20;99.90;;;;;;5054416;28;20639;-79
2023/06/12 06:02:43;;;;;;;5.13;4.47;;;28.40;99.90;;;;;;5054039;28;20209;-79
2023/06/12 06:05:11;;;;;;;6.32;4.55;;;28.60;99.90;;;;;;5053994;28;20186;-81
2023/06/12 06:07:39;;;;;;;5.22;4.72;;;28.80;99.90;;;;;;5053587;28;20217;-79
2023/06/12 06:10:06;;;;;;;6.30;5.03;;;29.00;99.90;;;;;;5054961;28;20190;-80
2023/06/12 06:12:33;;;;;;;6.38;5.07;;;29.10;99.90;;;;;;5053308;28;20521;-79
2023/06/12 06:15:00;;;;;;;5.50;4.78;;;29.20;99.90;;;;;;5054486;28;20492;-82
2023/06/12 06:17:27;;;;;;;4.85;4.45;;;29.30;99.90;;;;;;5053865;28;20198;-80
2023/06/12 06:19:54;;;;;;;4.78;4.10;;;29.40;99.90;;;;;;5053617;28;20230;-81
2023/06/12 06:22:24;;;;;;;5.10;4.60;;;29.60;99.90;;;;;;5054760;28;20598;-82
2023/06/12 06:24:52;;;;;;;7.47;4.30;;;29.40;99.90;;;;;;5053261;28;20206;-82
2023/06/12 06:27:19;;;;;;;5.30;4.75;;;29.40;99.90;;;;;;5054681;28;20218;-81
2023/06/12 06:29:46;;;;;;;5.80;4.60;;;29.60;99.90;;;;;;5054886;28;20556;-81
2023/06/12 06:32:13;;;;;;;5.22;4.70;;;29.70;99.90;;;;;;5052510;28;20230;-81
2023/06/12 06:34:40;;;;;;;5.57;4.57;;;29.90;99.90;;;;;;5034573;28;20606;-81
2023/06/12 06:37:07;;;;;;;6.57;5.45;;;29.90;99.90;;;;;;5034083;28;20199;-80
2023/06/12 06:39:34;;;;;;;6.90;5.43;;;29.80;99.90;;;;;;5034476;28;20521;-82
2023/06/12 06:42:02;;;;;;;5.05;4.50;;;30.00;99.90;;;;;;5034066;28;20649;-82
2023/06/12 06:44:29;;;;;;;5.43;4.93;;;30.10;99.90;;;;;;5034028;28;20278;-81
2023/06/12 06:46:56;;;;;;;9.13;4.60;;;30.30;99.90;;;;;;5040730;28;20280;-83
2023/06/12 06:49:23;;;;;;;4.80;4.40;;;30.50;99.90;;;;;;5053673;28;20304;-81
2023/06/12 06:51:50;;;;;;;5.32;4.82;;;30.70;99.90;;;;;;5053303;28;20868;-82
2023/06/12 06:54:17;;;;;;;4.70;4.22;;;30.80;99.90;;;;;;5053653;28;20204;-83
2023/06/12 06:56:44;;;;;;;4.82;4.30;;;30.60;99.90;;;;;;5054024;28;20208;-81
2023/06/12 06:59:12;;;;;;;5.00;4.50;;;30.90;99.90;;;;;;5052095;28;20219;-82
2023/06/12 07:02:40;;;;;;;4.93;4.45;;;31.10;99.90;;;;;;5009451;28;20882;-79
2023/06/12 07:05:08;;;;;;;5.45;4.05;;;31.20;99.90;;;;;;5046582;28;20553;-81
2023/06/12 07:07:35;;;;;;;6.50;4.35;;;31.60;99.90;;;;;;5052199;28;20210;-79
2023/06/12 07:10:02;;;;;;;5.15;4.32;;;31.90;99.90;;;;;;5053087;28;20189;-79
2023/06/12 07:12:29;;;;;;;5.68;4.55;;;32.30;99.90;;;;;;5051550;28;20206;-81
2023/06/12 07:14:57;;;;;;;5.22;4.38;;;32.10;99.90;;;;;;5052311;28;20201;-81
2023/06/12 07:17:24;;;;;;;5.57;4.93;;;32.00;99.90;;;;;;5052873;28;20301;-81
2023/06/12 07:34:31;;;;;;;7.80;4.75;;;32.10;99.90;;;;;;5291726;23;20264;-78
2023/06/12 07:36:58;;;;;;;5.30;4.80;;;31.70;99.90;;;;;;5071024;28;20213;-80
2023/06/12 07:39:25;;;;;;;6.85;4.80;;;31.40;99.90;;;;;;5060142;28;20245;-80
2023/06/12 07:41:52;;;;;;;5.15;4.18;;;31.50;99.90;;;;;;5057027;28;20594;-79
2023/06/12 07:44:20;;;;;;;4.82;4.30;;;31.60;99.90;;;;;;5053657;28;20588;-82
2023/06/12 07:46:47;;;;;;;7.55;4.93;;;31.70;99.90;;;;;;5062345;28;20205;-79
2023/06/12 07:49:14;;;;;;;6.10;5.22;;;32.00;99.90;;;;;;5072351;28;20283;-79
2023/06/12 07:51:42;;;;;;;4.70;4.20;;;32.00;99.90;;;;;;5065610;28;20213;-77
2023/06/12 07:54:12;;;;;;;5.00;4.47;;;32.20;99.90;;;;;;5066336;28;20209;-83
2023/06/12 07:56:40;;;;;;;5.72;4.38;;;32.50;99.90;;;;;;5066600;28;20209;-79
2023/06/12 07:59:09;;;;;;;6.95;5.22;;;32.70;99.90;;;;;;5066876;28;20596;-81
2023/06/12 08:01:36;;;;;;;5.25;4.72;;;32.80;99.90;;;;;;5071000;28;20254;-79
2023/06/12 08:04:04;;;;;;;5.50;4.30;;;32.60;99.90;;;;;;5070309;28;20284;-80
2023/06/12 08:06:33;;;;;;;6.07;5.43;;;32.70;99.90;;;;;;5071922;28;20259;-81
2023/06/12 08:09:01;;;;;;;6.70;4.90;;;32.60;99.90;;;;;;5070627;28;20209;-83
2023/06/12 08:11:29;;;;;;;6.28;4.43;;;32.50;99.90;;;;;;5071425;28;20251;-78
2023/06/12 08:13:56;;;;;;;5.32;4.60;;;32.60;99.90;;;;;;5068372;28;20201;-80
2023/06/12 08:16:24;;;;;;;5.32;4.82;;;32.90;99.90;;;;;;5060859;28;20203;-79
2023/06/12 08:18:51;;;;;;;5.13;4.63;;;32.60;99.90;;;;;;5068344;28;20265;-82
2023/06/12 08:21:17;;;;;;;4.95;4.38;;;32.80;99.90;;;;;;5071904;28;20197;-80
2023/06/12 08:23:45;;;;;;;6.75;4.22;;;32.90;99.90;;;;;;5067848;28;20221;-82
2023/06/12 08:26:13;;;;;;;8.35;5.18;;;32.60;99.90;;;;;;5054383;28;20232;-85
2023/06/12 08:28:40;;;;;;;5.13;4.30;;;32.70;99.90;;;;;;5043706;28;20208;-86
2023/06/12 08:31:08;;;;;;;6.15;5.15;;;32.30;99.90;;;;;;5051857;28;20205;-81
2023/06/12 08:33:35;;;;;;;6.70;4.88;;;32.30;99.90;;;;;;5046396;28;20229;-81
2023/06/12 08:36:02;;;;;;;5.70;4.85;;;32.20;99.90;;;;;;5052043;28;20212;-86
2023/06/12 08:38:29;;;;;;;6.72;4.88;;;32.10;99.90;;;;;;5051952;28;20236;-84
2023/06/12 08:40:59;;;;;;;6.22;4.50;;;31.80;99.90;;;;;;5047268;28;20311;-82
2023/06/12 08:43:29;;;;;;;10.45;5.13;;;31.90;99.90;;;;;;5039192;28;20251;-79
2023/06/12 08:45:58;;;;;;;5.90;5.18;;;31.80;99.90;;;;;;5044695;28;20590;-86
2023/06/12 08:48:28;;;;;;;5.82;4.90;;;31.70;99.90;;;;;;5052238;28;20207;-87
2023/06/12 08:50:55;;;;;;;5.57;4.68;;;32.00;99.90;;;;;;5048061;28;20237;-82
2023/06/12 08:53:23;;;;;;;5.25;4.75;;;32.00;99.90;;;;;;5041085;28;20292;-78
2023/06/12 08:55:51;;;;;;;5.32;4.45;;;32.30;99.90;;;;;;5046828;28;20206;-78
2023/06/12 08:58:18;;;;;;;4.93;4.45;;;32.50;99.90;;;;;;5051426;28;20983;-78
2023/06/12 09:00:46;;;;;;;6.45;5.13;;;33.00;99.90;;;;;;5050086;28;20236;-78
2023/06/12 09:03:14;;;;;;;5.47;4.68;;;33.00;99.90;;;;;;5042310;28;20267;-79
2023/06/12 09:05:41;;;;;;;6.18;4.85;;;33.30;99.90;;;;;;5039749;28;20209;-80
2023/06/12 09:08:08;;;;;;;7.25;5.75;;;33.10;99.90;;;;;;5042730;28;20587;-80
2023/06/12 09:10:38;;;;;;;7.05;4.70;;;32.90;99.90;;;;;;5046487;28;20298;-78
2023/06/12 09:13:07;;;;;;;5.35;4.85;;;32.70;99.90;;;;;;5047557;28;20198;-80
2023/06/12 09:15:34;;;;;;;7.72;5.15;;;32.80;99.90;;;;;;5053976;28;20304;-79
2023/06/12 09:18:02;;;;;;;5.28;4.60;;;32.40;99.90;;;;;;5055921;28;20304;-81
2023/06/12 09:20:32;;;;;;;6.72;5.05;;;32.70;99.90;;;;;;5055690;28;20221;-80
2023/06/12 09:23:00;;;;;;;5.78;5.00;;;32.70;99.90;;;;;;5047217;28;20210;-79
2023/06/12 09:25:33;;;;;;;6.00;4.75;;;32.30;99.90;;;;;;5054457;28;20591;-83
2023/06/12 09:28:03;;;;;;;6.22;4.75;;;32.60;99.90;;;;;;5054796;28;20244;-81
2023/06/12 09:30:31;;;;;;;5.60;4.70;;;32.80;99.90;;;;;;5052632;28;20289;-83
2023/06/12 09:33:00;;;;;;;4.97;4.47;;;32.90;99.90;;;;;;5055635;28;20333;-81
2023/06/12 09:35:28;;;;;;;6.10;4.50;;;32.50;99.90;;;;;;5054910;28;20194;-80
2023/06/12 09:37:56;;;;;;;5.75;4.35;;;32.80;99.90;;;;;;5055490;28;20217;-84
2023/06/12 09:40:23;;;;;;;8.02;4.63;;;33.10;99.90;;;;;;5055254;28;20689;-82
2023/06/12 09:42:50;;;;;;;6.90;5.15;;;33.40;99.90;;;;;;5055257;28;20205;-81
2023/06/12 09:45:19;;;;;;;6.80;5.40;;;33.40;99.90;;;;;;5055144;28;20508;-82
2023/06/12 09:47:47;;;;;;;6.30;4.93;;;33.40;99.90;;;;;;5052273;28;20204;-86
2023/06/12 09:50:15;;;;;;;4.43;4.03;;;33.10;99.90;;;;;;5043373;28;20226;-85
2023/06/12 09:52:44;;;;;;;6.38;4.68;;;33.30;99.90;;;;;;5037988;28;20210;-82
2023/06/12 09:55:13;;;;;;;6.07;5.40;;;33.20;99.90;;;;;;5055613;28;20225;-82
2023/06/12 09:57:44;;;;;;;6.00;4.60;;;33.10;99.90;;;;;;5054285;28;20573;-80
2023/06/12 10:00:15;;;;;;;7.38;4.50;;;32.70;99.90;;;;;;5053073;28;20246;-83
2023/06/12 10:02:47;;;;;;;6.38;4.28;;;32.60;99.90;;;;;;5055403;28;20512;-86
2023/06/12 10:05:20;;;;;;;5.97;4.93;;;33.10;99.90;;;;;;5055548;28;20304;-83
2023/06/12 10:07:52;;;;;;;4.47;4.15;;;33.30;99.90;;;;;;5042594;28;20656;-84
2023/06/12 10:10:20;;;;;;;5.43;4.47;;;33.90;99.90;;;;;;5054332;28;20222;-84
2023/06/12 10:12:47;;;;;;;5.43;4.80;;;34.20;99.90;;;;;;5048529;28;20603;-81
2023/06/12 10:15:14;;;;;;;6.97;4.20;;;34.00;99.90;;;;;;5042728;28;20305;-82
2023/06/12 10:17:41;;;;;;;5.75;4.28;;;33.80;99.90;;;;;;5044843;28;20242;-80
2023/06/12 10:20:10;;;;;;;4.95;4.45;;;33.80;99.90;;;;;;5051880;28;20898;-82
2023/06/12 10:22:37;;;;;;;6.45;4.20;;;34.00;99.90;;;;;;5049953;28;20206;-84
2023/06/12 10:25:07;;;;;;;5.50;5.00;;;34.20;99.90;;;;;;5054682;28;20228;-78
2023/06/12 10:27:36;;;;;;;5.82;4.88;;;34.60;99.90;;;;;;5044343;28;20221;-79
2023/06/12 10:30:04;;;;;;;8.10;4.68;;;34.50;99.90;;;;;;5053498;28;20201;-79
2023/06/12 10:32:32;;;;;;;7.53;4.95;;;34.30;99.90;;;;;;5050892;28;20233;-83
2023/06/12 10:35:01;;;;;;;5.53;5.03;;;33.80;99.90;;;;;;5052938;28;20242;-79
2023/06/12 10:37:30;;;;;;;5.78;5.18;;;33.90;99.90;;;;;;5053811;28;20202;-79
2023/06/12 10:40:12;;;;;;;5.47;4.57;;;33.80;99.20;;;;;;5053025;28;20220;-80
2023/06/12 10:42:47;;;;;;;5.63;4.95;;;33.60;99.10;;;;;;5054192;28;20218;-82
2023/06/12 10:45:19;;;;;;;5.72;4.30;;;33.70;99.40;;;;;;5053862;28;20221;-82
2023/06/12 10:48:19;;;;;;;5.28;4.78;;;33.80;98.60;;;;;;5053783;28;20198;-85
2023/06/12 10:50:50;;;;;;;5.93;4.55;;;33.50;97.40;;;;;;5044992;28;20202;-86
2023/06/12 10:53:21;;;;;;;5.20;4.60;;;33.50;95.80;;;;;;5043114;28;20208;-80
2023/06/12 10:55:54;;;;;;;5.10;4.20;;;33.80;96.00;;;;;;5053451;28;20224;-83
2023/06/12 10:58:23;;;;;;;5.28;4.75;;;33.80;94.60;;;;;;5054063;28;20220;-81
2023/06/12 11:00:51;;;;;;;4.60;4.22;;;33.60;94.90;;;;;;5052241;28;20220;-83
2023/06/12 11:03:25;;;;;;;5.40;4.93;;;33.60;95.30;;;;;;5049911;28;20206;-78
2023/06/12 11:05:55;;;;;;;5.25;4.43;;;33.80;95.10;;;;;;5033484;28;20233;-83
2023/06/12 11:08:23;;;;;;;5.63;4.63;;;34.00;94.20;;;;;;5040871;28;20206;-85
2023/06/12 11:10:51;;;;;;;4.53;4.13;;;34.00;92.50;;;;;;5053609;28;20240;-84
2023/06/12 11:13:22;;;;;;;6.82;4.35;;;33.90;92.90;;;;;;5044916;28;20311;-83
2023/06/12 11:15:51;;;;;;;4.30;3.90;;;33.50;91.70;;;;;;5033796;28;20603;-87
2023/06/12 11:18:18;;;;;;;5.10;4.60;;;33.40;91.70;;;;;;5049540;28;20206;-81
2023/06/12 11:20:52;;;;;;;7.72;4.50;;;33.30;91.20;;;;;;5054463;28;20580;-86
2023/06/12 11:23:22;;;;;;;4.97;4.50;;;33.40;92.70;;;;;;5052856;28;20201;-78
2023/06/12 11:25:53;;;;;;;4.50;4.05;;;33.50;91.60;;;;;;5053152;28;20198;-78
2023/06/12 11:28:20;;;;;;;4.55;3.80;;;33.60;91.80;;;;;;5052550;28;20198;-78
2023/06/12 11:30:48;;;;;;;6.15;4.18;;;33.60;90.30;;;;;;5052461;28;20206;-80
2023/06/12 11:33:17;;;;;;;4.20;3.90;;;33.60;86.70;;;;;;5053100;28;20234;-78
2023/06/12 11:35:45;;;;;;;4.93;3.85;;;33.60;90.60;;;;;;5051543;28;20202;-78
2023/06/12 11:38:14;;;;;;;5.15;4.10;;;33.90;89.00;;;;;;5033924;28;20256;-79
2023/06/12 11:40:41;;;;;;;5.03;4.43;;;34.10;88.20;;;;;;5052353;28;20233;-78
2023/06/12 11:43:10;;;;;;;4.65;4.22;;;33.90;87.70;;;;;;5043236;28;20197;-79
2023/06/12 11:45:41;;;;;;;4.45;3.92;;;33.80;84.90;;;;;;5052557;28;20224;-78
2023/06/12 11:48:13;;;;;;;5.28;4.07;;;33.90;88.50;;;;;;5051394;28;20610;-80
2023/06/12 11:50:40;;;;;;;4.65;3.90;;;34.20;84.80;;;;;;5051931;28;20197;-79
2023/06/12 11:53:08;;;;;;;4.78;4.28;;;34.20;85.80;;;;;;5050256;28;20256;-80
2023/06/12 11:55:36;;;;;;;6.30;3.83;;;34.20;84.90;;;;;;5033371;28;20203;-79
2023/06/12 11:58:04;;;;;;;4.47;4.07;;;33.80;84.60;;;;;;5050581;28;20523;-79
2023/06/12 12:00:34;;;;;;;4.50;4.15;;;33.80;84.70;;;;;;5051164;28;20224;-79
2023/06/12 12:03:04;;;;;;;4.20;3.80;;;33.80;83.90;;;;;;5050441;28;20225;-78
2023/06/12 12:05:36;;;;;;;4.78;4.32;;;33.90;86.40;;;;;;5051331;28;20202;-80
2023/06/12 12:08:04;;;;;;;5.50;4.07;;;33.80;82.80;;;;;;5051181;28;20505;-78
2023/06/12 12:10:33;;;;;;;4.68;4.22;;;33.50;82.70;;;;;;5050333;28;20221;-77
2023/06/12 12:13:01;;;;;;;4.47;3.53;;;33.60;82.30;;;;;;5052205;28;20625;-78
2023/06/12 12:15:30;;;;;;;4.30;3.78;;;33.20;81.30;;;;;;5051763;28;20558;-79
2023/06/12 12:17:59;;;;;;;6.85;3.83;;;33.20;80.40;;;;;;5051646;28;20197;-80
2023/06/12 12:20:30;;;;;;;5.18;3.55;;;33.20;81.60;;;;;;5052621;28;20312;-81
2023/06/12 12:23:00;;;;;;;5.15;3.50;;;33.30;80.30;;;;;;5044314;28;20195;-81
2023/06/12 12:25:29;;;;;;;3.88;3.58;;;33.50;79.70;;;;;;5045197;28;20212;-81
2023/06/12 12:27:56;;;;;;;3.75;3.45;;;33.50;79.00;;;;;;5041564;28;20228;-80
2023/06/12 12:30:23;;;;;;;3.58;3.28;;;33.50;78.60;;;;;;5050235;28;20206;-80
2023/06/12 12:32:52;;;;;;;3.92;3.50;;;33.70;77.30;;;;;;5051858;28;20221;-80
2023/06/12 12:35:21;;;;;;;3.35;3.05;;;33.90;76.40;;;;;;5051010;28;20225;-79
2023/06/12 12:37:49;;;;;;;5.72;3.55;;;33.70;75.20;;;;;;5051404;28;20206;-80
2023/06/12 12:40:16;;;;;;;3.25;2.95;;;33.60;77.10;;;;;;5051666;28;20214;-78
2023/06/12 12:42:45;;;;;;;5.25;3.50;;;33.90;79.50;;;;;;5051741;28;20202;-81
2023/06/12 12:45:14;;;;;;;5.75;3.88;;;34.00;76.20;;;;;;5050796;28;20668;-80
2023/06/12 12:47:41;;;;;;;7.45;3.75;;;33.80;76.70;;;;;;5051096;28;20206;-82
2023/06/12 12:50:09;;;;;;;4.25;3.75;;;33.70;76.30;;;;;;5046751;28;20205;-82
2023/06/12 12:52:37;;;;;;;4.72;3.63;;;33.60;79.60;;;;;;5042450;28;20221;-78
2023/06/12 12:55:06;;;;;;;5.18;3.80;;;33.70;78.90;;;;;;5038988;28;20232;-84
2023/06/12 12:57:36;;;;;;;4.78;3.88;;;33.80;83.10;;;;;;5051631;28;20220;-82
2023/06/12 13:00:07;;;;;;;4.47;3.60;;;34.00;81.10;;;;;;5051108;28;20252;-80
2023/06/12 13:02:34;;;;;;;4.25;3.53;;;34.10;77.10;;;;;;5049552;28;20214;-81
2023/06/12 13:05:02;;;;;;;3.88;3.58;;;34.10;74.10;;;;;;5040330;28;20198;-79
2023/06/12 13:07:30;;;;;;;4.90;3.45;;;34.00;76.80;;;;;;5049327;28;20659;-82
2023/06/12 13:10:02;;;;;;;5.78;3.75;;;33.80;76.20;;;;;;5042283;28;20206;-84